Time;durP1;ratioP1;P1;durP2;ratioP2;P2;SDS_P1;SDS_P2;PMS_P1;PMS_P2;Temp;Humidity;BMP_temperature;BMP_pressure;BME280_temperature;BME280_humidity;BME280_pressure;Samples;Min_cycle;Max_cycle;Signal;HPM_P1;HPM_P2
2023/05/09 00:01:58;;;;;;;17.27;14.57;;;;;;;18.05;68.18;97754.25;5022143;28;20172;-69
2023/05/09 00:04:24;;;;;;;22.90;14.13;;;;;;;17.98;68.38;97756.84;5010537;28;20224;-69
2023/05/09 00:06:50;;;;;;;17.17;14.40;;;;;;;17.88;68.90;97756.28;5014779;28;20200;-69
2023/05/09 00:09:15;;;;;;;16.20;13.23;;;;;;;17.83;69.05;97746.25;5009015;28;20438;-69
2023/05/09 00:11:41;;;;;;;16.07;14.40;;;;;;;17.91;68.90;97755.91;5012924;28;20576;-69
2023/05/09 00:14:07;;;;;;;15.83;13.97;;;;;;;17.96;68.79;97756.16;5012474;28;20255;-69
2023/05/09 00:16:32;;;;;;;15.47;13.87;;;;;;;18.02;68.42;97754.66;5008594;28;20235;-68
2023/05/09 00:18:58;;;;;;;17.30;13.93;;;;;;;17.99;68.60;97747.06;5010000;28;20611;-69
2023/05/09 00:21:24;;;;;;;16.30;14.70;;;;;;;18.01;68.42;97751.16;5008330;28;20215;-71
2023/05/09 00:23:49;;;;;;;18.63;16.00;;;;;;;18.03;68.48;97740.34;5007168;28;20270;-70
2023/05/09 00:26:15;;;;;;;19.13;14.73;;;;;;;18.06;68.39;97740.00;5008634;28;20203;-69
2023/05/09 00:28:40;;;;;;;17.50;14.73;;;;;;;18.10;68.44;97733.31;5008818;28;20192;-70
2023/05/09 00:31:06;;;;;;;17.40;15.60;;;;;;;18.07;68.30;97731.88;5013409;28;20192;-70
2023/05/09 00:33:31;;;;;;;18.37;14.90;;;;;;;18.02;68.71;97720.19;5010345;28;20217;-70
2023/05/09 00:35:57;;;;;;;19.10;16.87;;;;;;;18.03;68.80;97724.44;5008925;28;20233;-69
2023/05/09 00:38:22;;;;;;;22.83;18.80;;;;;;;18.07;68.73;97723.06;5011112;28;20224;-70
2023/05/09 00:40:48;;;;;;;17.10;15.30;;;;;;;18.04;68.97;97723.44;5014768;28;20230;-70
2023/05/09 00:43:13;;;;;;;19.23;15.00;;;;;;;18.09;68.96;97723.72;5010097;28;20943;-70
2023/05/09 00:45:39;;;;;;;17.67;14.87;;;;;;;18.10;68.79;97726.16;5017589;28;20207;-69
2023/05/09 00:48:05;;;;;;;32.77;21.93;;;;;;;18.14;68.87;97723.16;5008615;28;20192;-70
2023/05/09 00:50:30;;;;;;;45.80;28.63;;;;;;;18.14;68.82;97716.03;5006166;28;20649;-70
2023/05/09 00:52:57;;;;;;;39.47;23.50;;;;;;;18.16;68.95;97715.81;5008097;28;20287;-70
2023/05/09 00:55:22;;;;;;;24.50;19.10;;;;;;;18.15;68.93;97707.03;5016250;28;20223;-69
2023/05/09 00:57:48;;;;;;;21.13;16.03;;;;;;;18.16;68.79;97700.72;5007360;28;20943;-69
2023/05/09 01:00:13;;;;;;;18.13;15.53;;;;;;;18.20;68.77;97707.28;5008321;28;20486;-68
2023/05/09 01:02:41;;;;;;;17.30;15.50;;;;;;;18.18;68.85;97700.56;5012646;28;20195;-69
2023/05/09 01:05:06;;;;;;;17.80;15.90;;;;;;;18.15;68.84;97704.38;5013327;28;20211;-69
2023/05/09 01:07:43;;;;;;;16.80;15.00;;;;;;;18.16;68.87;97700.72;5014326;28;20500;-69
2023/05/09 01:10:20;;;;;;;18.23;14.83;;;;;;;18.14;68.72;97697.47;5011197;28;20549;-69
2023/05/09 01:12:55;;;;;;;18.67;15.80;;;;;;;18.15;68.98;97693.78;5006937;28;20477;-69
2023/05/09 01:15:39;;;;;;;26.63;17.77;;;;;;;18.10;68.97;97694.34;5008058;28;20474;-69
2023/05/09 01:18:08;;;;;;;22.40;17.00;;;;;;;18.04;69.16;97697.75;5012911;28;20477;-69
2023/05/09 01:20:45;;;;;;;22.20;17.20;;;;;;;18.04;69.17;97691.63;5010788;28;20525;-69
2023/05/09 01:23:13;;;;;;;23.50;17.17;;;;;;;18.05;69.24;97695.91;5010359;28;20808;-68
2023/05/09 01:25:54;;;;;;;19.67;16.77;;;;;;;17.95;69.53;97693.56;5013585;28;20514;-69
2023/05/09 01:28:34;;;;;;;22.27;17.03;;;;;;;17.99;69.43;97691.38;5013664;28;20489;-69
2023/05/09 01:30:59;;;;;;;19.20;16.13;;;;;;;18.03;69.21;97692.63;5014696;28;20506;-69
2023/05/09 01:33:25;;;;;;;22.27;17.27;;;;;;;18.04;69.17;97699.56;5007741;28;21351;-69
2023/05/09 01:35:57;;;;;;;20.60;17.53;;;;;;;18.07;69.28;97693.91;5007795;28;20192;-69
2023/05/09 01:38:24;;;;;;;19.27;17.20;;;;;;;18.08;69.11;97690.25;5015465;28;20222;-70
2023/05/09 01:40:52;;;;;;;22.23;17.30;;;;;;;18.05;69.24;97687.97;5008666;28;20809;-70
2023/05/09 01:43:18;;;;;;;23.10;17.00;;;;;;;18.06;69.10;97679.00;5006514;28;21058;-70
2023/05/09 01:45:44;;;;;;;17.20;15.30;;;;;;;18.03;69.22;97671.41;5014107;28;20431;-70
2023/05/09 01:48:11;;;;;;;29.10;17.03;;;;;;;18.05;69.18;97675.53;5008470;28;20574;-70
2023/05/09 01:50:38;;;;;;;20.90;17.67;;;;;;;18.08;69.03;97671.69;5012229;28;20428;-70
2023/05/09 01:53:05;;;;;;;20.57;18.37;;;;;;;18.06;68.59;97673.69;5018392;28;20476;-70
2023/05/09 01:55:31;;;;;;;24.27;17.10;;;;;;;18.07;68.78;97670.03;5016845;28;20954;-69
2023/05/09 01:57:57;;;;;;;20.57;17.77;;;;;;;18.06;68.77;97663.91;5052406;28;21028;-70
2023/05/09 02:00:24;;;;;;;20.97;18.00;;;;;;;18.06;68.79;97665.75;5017968;28;20441;-70
2023/05/09 02:02:50;;;;;;;25.10;19.13;;;;;;;18.06;68.49;97660.44;4994397;28;20431;-69
2023/05/09 02:05:16;;;;;;;27.97;19.50;;;;;;;18.01;68.46;97661.00;5014524;28;21049;-70
2023/05/09 02:07:41;;;;;;;20.90;18.00;;;;;;;18.01;68.86;97666.31;5049854;28;20803;-70
2023/05/09 02:10:09;;;;;;;30.43;17.97;;;;;;;17.99;68.66;97670.97;5016177;28;20444;-69
2023/05/09 02:12:35;;;;;;;22.90;19.20;;;;;;;17.91;68.40;97673.72;5025345;28;20235;-69
2023/05/09 02:15:00;;;;;;;26.60;20.90;;;;;;;17.83;69.03;97676.50;5015964;28;20459;-69
2023/05/09 02:17:28;;;;;;;24.87;21.13;;;;;;;17.75;69.41;97682.72;5013714;28;20650;-69
2023/05/09 02:19:53;;;;;;;25.17;20.37;;;;;;;17.74;69.54;97678.44;5018174;28;20192;-70
2023/05/09 02:22:19;;;;;;;28.33;18.70;;;;;;;17.70;69.58;97675.34;5015832;28;20572;-70
2023/05/09 02:24:44;;;;;;;28.63;20.70;;;;;;;17.78;69.31;97677.88;5018285;28;20239;-71
2023/05/09 02:27:11;;;;;;;26.83;19.50;;;;;;;17.83;69.07;97669.34;5022285;28;20196;-70
2023/05/09 02:29:41;;;;;;;23.63;20.03;;;;;;;17.89;68.99;97667.78;5027346;28;20184;-70
2023/05/09 02:32:28;;;;;;;27.10;21.10;;;;;;;17.89;68.78;97670.44;5018608;28;20448;-70
2023/05/09 02:34:54;;;;;;;21.57;18.20;;;;;;;17.88;68.62;97661.66;5003408;28;21096;-70
2023/05/09 02:37:20;;;;;;;24.43;17.90;;;;;;;17.87;68.77;97660.03;5018779;28;20447;-69
2023/05/09 02:39:46;;;;;;;24.17;18.97;;;;;;;17.86;68.57;97668.16;5018880;28;20493;-69
2023/05/09 02:42:14;;;;;;;22.83;17.90;;;;;;;17.85;68.79;97662.03;5021069;28;20490;-69
2023/05/09 02:44:39;;;;;;;19.50;15.13;;;;;;;17.73;68.97;97660.88;5012702;28;20486;-69
2023/05/09 02:47:06;;;;;;;18.87;15.20;;;;;;;17.70;69.10;97667.41;5016498;28;20597;-70
2023/05/09 02:49:32;;;;;;;20.10;16.10;;;;;;;17.70;68.80;97658.59;5022476;28;20669;-69
2023/05/09 02:51:57;;;;;;;22.47;16.50;;;;;;;17.74;68.83;97660.69;5011491;28;20459;-70
2023/05/09 02:54:22;;;;;;;23.30;16.77;;;;;;;17.74;68.50;97659.88;5024445;28;20533;-70
2023/05/09 02:56:48;;;;;;;20.83;16.23;;;;;;;17.70;68.56;97650.66;5018171;28;20188;-70
2023/05/09 02:59:14;;;;;;;23.60;17.60;;;;;;;17.69;68.73;97643.72;5023907;28;20211;-69
2023/05/09 03:01:39;;;;;;;20.13;16.80;;;;;;;17.66;68.61;97643.06;5022996;28;20193;-70
2023/05/09 03:04:05;;;;;;;21.23;17.07;;;;;;;17.65;68.66;97638.78;5014493;28;20542;-70
2023/05/09 03:06:30;;;;;;;24.00;18.07;;;;;;;17.64;68.78;97634.47;5019215;28;20321;-70
2023/05/09 03:08:56;;;;;;;19.70;17.43;;;;;;;17.67;69.05;97638.59;5018471;28;20199;-70
2023/05/09 03:11:21;;;;;;;22.37;17.73;;;;;;;17.68;69.09;97632.31;5015643;28;20646;-69
2023/05/09 03:13:47;;;;;;;23.07;18.90;;;;;;;17.65;68.66;97638.78;5013187;28;20629;-71
2023/05/09 03:16:13;;;;;;;21.20;17.47;;;;;;;17.61;68.90;97632.22;5015543;28;20215;-69
2023/05/09 03:18:39;;;;;;;22.00;18.63;;;;;;;17.65;68.86;97636.13;5015161;28;20203;-69
2023/05/09 03:21:04;;;;;;;23.77;19.03;;;;;;;17.68;68.71;97634.94;5015189;28;20511;-69
2023/05/09 03:23:30;;;;;;;25.47;18.90;;;;;;;17.61;68.86;97637.53;5025960;28;20200;-69
2023/05/09 03:25:55;;;;;;;32.87;22.37;;;;;;;17.59;69.08;97642.19;5024806;28;20228;-68
2023/05/09 03:28:21;;;;;;;27.80;24.00;;;;;;;17.64;68.99;97628.38;5016313;28;20196;-69
2023/05/09 03:30:46;;;;;;;25.70;20.97;;;;;;;17.65;68.95;97630.81;5009855;28;20271;-69
2023/05/09 03:33:11;;;;;;;25.60;20.20;;;;;;;17.58;68.59;97629.94;5022586;28;20239;-69
2023/05/09 03:35:37;;;;;;;23.60;19.57;;;;;;;17.60;68.59;97627.94;5025266;28;20282;-69
2023/05/09 03:38:02;;;;;;;28.20;19.77;;;;;;;17.61;68.66;97629.56;5020983;28;20608;-68
2023/05/09 03:40:28;;;;;;;22.90;18.50;;;;;;;17.58;68.56;97629.13;5024001;28;20279;-69
2023/05/09 03:42:53;;;;;;;25.77;19.20;;;;;;;17.56;68.44;97629.31;5013882;28;20672;-69
2023/05/09 03:45:19;;;;;;;20.83;17.80;;;;;;;17.57;68.51;97628.28;5016267;28;20266;-67
2023/05/09 03:47:45;;;;;;;22.80;18.43;;;;;;;17.55;68.55;97624.19;5010879;28;20188;-69
2023/05/09 03:50:10;;;;;;;25.33;18.30;;;;;;;17.49;68.50;97623.13;5014563;28;20223;-69
2023/05/09 03:52:36;;;;;;;22.10;17.60;;;;;;;17.38;68.96;97623.59;5011939;28;20212;-70
2023/05/09 03:55:02;;;;;;;23.47;18.20;;;;;;;17.38;68.76;97618.31;4992593;28;20228;-69
2023/05/09 03:57:27;;;;;;;20.40;16.27;;;;;;;17.42;68.66;97624.84;5010728;28;20632;-69
2023/05/09 03:59:52;;;;;;;19.93;17.37;;;;;;;17.43;68.47;97621.19;5017063;28;20439;-70
2023/05/09 04:02:18;;;;;;;23.73;19.00;;;;;;;17.47;68.13;97617.19;5008813;28;20267;-70
2023/05/09 04:04:45;;;;;;;24.20;18.77;;;;;;;17.49;67.83;97620.47;5006360;28;20231;-70
2023/05/09 04:07:10;;;;;;;23.13;18.60;;;;;;;17.49;67.74;97623.13;5014432;28;20206;-70
2023/05/09 04:09:36;;;;;;;25.73;19.57;;;;;;;17.53;67.55;97620.91;5008255;28;20804;-69
2023/05/09 04:12:01;;;;;;;22.17;18.70;;;;;;;17.51;67.39;97618.47;4989541;28;20211;-69
2023/05/09 04:14:27;;;;;;;23.40;18.80;;;;;;;17.51;67.38;97618.47;5010905;28;20631;-70
2023/05/09 04:16:52;;;;;;;24.10;19.23;;;;;;;17.45;67.40;97613.88;5003826;28;20250;-69
2023/05/09 04:19:18;;;;;;;25.50;19.07;;;;;;;17.39;67.71;97617.28;5009228;28;20238;-69
2023/05/09 04:21:43;;;;;;;24.10;20.43;;;;;;;17.37;67.79;97616.66;5009543;28;20242;-69
2023/05/09 04:24:08;;;;;;;23.40;19.53;;;;;;;17.39;67.78;97609.34;5016328;28;20219;-70
2023/05/09 04:26:37;;;;;;;23.60;18.13;;;;;;;17.41;67.63;97618.75;5004181;28;20227;-70
2023/05/09 04:29:02;;;;;;;24.80;18.73;;;;;;;17.42;67.43;97619.56;5006055;28;20230;-69
2023/05/09 04:31:28;;;;;;;23.00;18.17;;;;;;;17.43;67.61;97616.75;4990350;28;20855;-69
2023/05/09 04:33:54;;;;;;;22.13;18.27;;;;;;;17.40;67.70;97617.09;5007155;28;20282;-69
2023/05/09 04:36:20;;;;;;;21.50;17.83;;;;;;;17.44;67.70;97620.19;5007046;28;20677;-69
2023/05/09 04:38:45;;;;;;;23.90;18.83;;;;;;;17.43;67.59;97621.19;5008654;28;21227;-68
2023/05/09 04:41:10;;;;;;;23.80;19.60;;;;;;;17.39;67.66;97617.28;5005816;28;20192;-68
2023/05/09 04:43:36;;;;;;;23.90;17.73;;;;;;;17.40;67.96;97622.41;5013172;28;20298;-68
2023/05/09 04:46:01;;;;;;;22.00;18.13;;;;;;;17.44;67.87;97620.19;5012648;28;20184;-68
2023/05/09 04:48:27;;;;;;;22.10;16.60;;;;;;;17.43;68.09;97621.19;5006973;28;20219;-68
2023/05/09 04:50:52;;;;;;;21.90;17.93;;;;;;;17.45;68.20;97625.28;5006333;28;20322;-68
2023/05/09 04:53:18;;;;;;;21.13;18.27;;;;;;;17.49;68.29;97612.53;5016093;28;20248;-68
2023/05/09 04:55:43;;;;;;;19.80;16.50;;;;;;;17.48;68.37;97616.16;5008110;28;20224;-68
2023/05/09 04:58:08;;;;;;;25.27;18.90;;;;;;;17.47;68.45;97625.13;5016171;28;20195;-69
2023/05/09 05:00:34;;;;;;;21.43;17.93;;;;;;;17.53;68.51;97616.41;5010261;28;20197;-70
2023/05/09 05:02:59;;;;;;;23.50;17.63;;;;;;;17.60;68.42;97619.13;5019403;28;20238;-69
2023/05/09 05:05:25;;;;;;;22.30;17.43;;;;;;;17.67;68.31;97609.44;5013734;28;20304;-69
2023/05/09 05:07:52;;;;;;;21.03;18.20;;;;;;;17.70;67.87;97613.53;5007426;28;20223;-69
2023/05/09 05:10:17;;;;;;;24.00;17.70;;;;;;;17.73;68.01;97611.34;5003719;28;20192;-69
2023/05/09 05:12:43;;;;;;;21.80;16.77;;;;;;;17.79;68.03;97615.06;5009439;28;20549;-69
2023/05/09 05:15:08;;;;;;;22.73;18.27;;;;;;;17.83;68.27;97615.53;5016663;28;20299;-69
2023/05/09 05:17:34;;;;;;;24.13;17.33;;;;;;;17.79;67.65;97609.75;5010557;28;20199;-71
2023/05/09 05:20:00;;;;;;;21.83;17.80;;;;;;;17.74;68.09;97614.81;5006186;28;20203;-71
2023/05/09 05:22:25;;;;;;;18.77;16.57;;;;;;;17.70;67.87;97617.03;5013477;28;20598;-70
2023/05/09 05:24:51;;;;;;;19.70;15.90;;;;;;;17.57;67.52;97609.75;4994763;28;20223;-71
2023/05/09 05:27:16;;;;;;;21.27;15.73;;;;;;;17.55;67.77;97613.59;5022529;28;20274;-71
2023/05/09 05:29:42;;;;;;;19.47;16.33;;;;;;;17.56;67.99;97607.28;5012343;28;20235;-70
2023/05/09 05:32:07;;;;;;;21.60;16.60;;;;;;;17.60;68.37;97606.72;5012050;28;20219;-71
2023/05/09 05:34:32;;;;;;;20.90;16.87;;;;;;;17.66;68.04;97605.16;5016827;28;20246;-72
2023/05/09 05:36:58;;;;;;;24.67;16.40;;;;;;;17.71;68.00;97601.94;5005659;28;20216;-72
2023/05/09 05:39:23;;;;;;;22.33;18.53;;;;;;;17.74;67.42;97602.38;5007241;28;20283;-72
2023/05/09 05:41:50;;;;;;;23.70;18.30;;;;;;;17.76;67.25;97604.84;5002883;28;20283;-72
2023/05/09 05:44:16;;;;;;;27.33;17.30;;;;;;;17.86;67.40;97604.53;5005336;28;20212;-72
2023/05/09 05:46:41;;;;;;;23.27;18.07;;;;;;;17.84;67.04;97607.38;5011584;28;20962;-71
2023/05/09 05:49:07;;;;;;;25.00;18.07;;;;;;;17.88;67.26;97603.34;5005822;28;20275;-71
2023/05/09 05:51:32;;;;;;;26.27;19.20;;;;;;;17.87;67.29;97600.88;5006805;28;20274;-71
2023/05/09 05:53:57;;;;;;;22.07;17.93;;;;;;;17.94;67.32;97602.56;5006340;28;20247;-69
2023/05/09 05:56:23;;;;;;;20.37;17.17;;;;;;;18.04;67.04;97601.44;5004038;28;20657;-71
2023/05/09 05:58:48;;;;;;;22.00;18.50;;;;;;;18.13;66.58;97597.69;5013858;28;20935;-71
2023/05/09 06:01:14;;;;;;;25.33;19.33;;;;;;;18.23;65.99;97592.88;5009527;28;20288;-71
2023/05/09 06:03:39;;;;;;;22.63;18.83;;;;;;;18.26;65.95;97597.78;5033296;28;20293;-70
2023/05/09 06:06:05;;;;;;;22.23;18.73;;;;;;;18.32;65.85;97590.91;5012922;28;20227;-69
2023/05/09 06:08:30;;;;;;;20.70;17.70;;;;;;;18.36;66.44;97589.47;4973148;28;20216;-71
2023/05/09 06:10:56;;;;;;;23.83;19.70;;;;;;;18.30;66.53;97589.44;5011328;28;20195;-71
2023/05/09 06:13:21;;;;;;;22.57;19.90;;;;;;;18.35;66.42;97592.34;5008309;28;20291;-70
2023/05/09 06:15:47;;;;;;;25.63;20.27;;;;;;;18.36;66.16;97592.13;4994364;28;20204;-71
2023/05/09 06:18:12;;;;;;;28.03;23.10;;;;;;;18.44;65.96;97596.47;4973119;28;20197;-71
2023/05/09 06:20:38;;;;;;;23.60;20.47;;;;;;;18.49;65.93;97577.31;4997420;28;20275;-71
2023/05/09 06:23:03;;;;;;;24.33;20.70;;;;;;;18.56;64.83;97583.50;5007671;28;20220;-70
2023/05/09 06:25:28;;;;;;;29.20;21.47;;;;;;;18.49;65.29;97575.50;5015307;28;20298;-72
2023/05/09 06:27:54;;;;;;;27.13;21.37;;;;;;;18.54;64.92;97575.72;5007858;28;20693;-71
2023/05/09 06:30:19;;;;;;;34.33;23.03;;;;;;;18.57;64.70;97572.69;5007798;28;20196;-69
2023/05/09 06:32:45;;;;;;;25.07;21.13;;;;;;;18.65;65.22;97576.22;5014956;28;20234;-69
2023/05/09 06:35:10;;;;;;;25.23;20.90;;;;;;;18.69;65.26;97570.31;5008476;28;20255;-71
2023/05/09 06:37:36;;;;;;;25.60;20.30;;;;;;;18.79;64.79;97566.47;5006772;28;20221;-70
2023/05/09 06:40:02;;;;;;;25.87;21.70;;;;;;;18.73;64.24;97570.75;5010836;28;20219;-70
2023/05/09 06:42:28;;;;;;;26.37;21.00;;;;;;;18.72;64.35;97579.72;5014011;28;20248;-70
2023/05/09 06:44:54;;;;;;;26.23;22.50;;;;;;;18.75;64.14;97576.69;5017011;28;20475;-72
2023/05/09 06:47:20;;;;;;;25.37;20.90;;;;;;;18.71;64.27;97573.56;5012163;28;20446;-70
2023/05/09 06:49:45;;;;;;;26.73;22.20;;;;;;;18.77;64.81;97569.34;5010042;28;20280;-70
2023/05/09 06:52:11;;;;;;;33.57;23.13;;;;;;;18.79;64.84;97561.97;5020844;28;20215;-70
2023/05/09 06:54:37;;;;;;;26.43;22.80;;;;;;;18.92;64.32;97568.38;5023512;28;20230;-71
2023/05/09 06:57:03;;;;;;;26.27;20.63;;;;;;;18.94;64.10;97567.22;5027376;28;20434;-70
2023/05/09 06:59:28;;;;;;;28.73;21.60;;;;;;;19.02;64.47;97564.38;5023618;28;20427;-71
2023/05/09 07:01:54;;;;;;;26.60;21.07;;;;;;;19.15;63.94;97552.97;5012101;28;20250;-71
2023/05/09 07:04:20;;;;;;;25.70;20.87;;;;;;;19.39;64.06;97550.81;5016104;28;20709;-70
2023/05/09 07:06:45;;;;;;;27.10;21.83;;;;;;;19.52;63.12;97550.03;5014223;28;20612;-70
2023/05/09 07:09:13;;;;;;;25.70;20.03;;;;;;;19.63;62.02;97545.97;5015694;28;20200;-70
2023/05/09 07:11:39;;;;;;;27.53;20.47;;;;;;;19.77;61.71;97547.63;5025977;28;20188;-70
2023/05/09 07:14:04;;;;;;;24.43;19.47;;;;;;;19.89;61.43;97542.53;5017167;28;20458;-70
2023/05/09 07:16:30;;;;;;;23.77;20.27;;;;;;;19.94;59.18;97536.59;5020765;28;20202;-70
2023/05/09 07:18:55;;;;;;;25.50;21.77;;;;;;;19.98;59.08;97540.50;5021624;28;20216;-71
2023/05/09 07:21:20;;;;;;;29.17;21.43;;;;;;;19.70;57.72;97530.81;5013291;28;20266;-70
2023/05/09 07:23:46;;;;;;;23.80;19.40;;;;;;;19.84;58.36;97530.84;5013166;28;20218;-70
2023/05/09 07:26:11;;;;;;;23.63;19.80;;;;;;;20.09;58.80;97521.25;5015973;28;20698;-70
2023/05/09 07:28:37;;;;;;;24.37;21.00;;;;;;;20.24;59.12;97521.03;5025681;28;20195;-70
2023/05/09 07:31:04;;;;;;;24.30;20.93;;;;;;;20.40;59.13;97509.16;5009684;28;20201;-71
2023/05/09 07:33:30;;;;;;;23.33;20.70;;;;;;;20.60;58.60;97504.81;5019206;28;20524;-70
2023/05/09 07:35:57;;;;;;;26.80;20.30;;;;;;;20.80;58.29;97507.41;5013698;28;20431;-71
2023/05/09 07:38:23;;;;;;;24.10;19.57;;;;;;;20.97;55.83;97507.78;5016233;28;20196;-70
2023/05/09 07:40:48;;;;;;;21.97;19.50;;;;;;;21.08;55.54;97488.44;5015457;28;20942;-70
2023/05/09 07:43:13;;;;;;;30.73;20.20;;;;;;;21.09;55.73;97491.91;5021599;28;20227;-71
2023/05/09 07:45:39;;;;;;;20.40;17.83;;;;;;;21.23;55.91;97490.81;5017869;28;20215;-69
2023/05/09 07:48:04;;;;;;;31.13;19.93;;;;;;;21.22;54.09;97488.38;5010459;28;20622;-70
2023/05/09 07:50:30;;;;;;;22.87;19.43;;;;;;;21.33;54.26;97477.03;5015901;28;20208;-70
2023/05/09 07:52:55;;;;;;;23.93;18.87;;;;;;;21.53;54.92;97479.56;5014179;28;20204;-70
2023/05/09 07:55:21;;;;;;;22.70;18.40;;;;;;;21.74;54.35;97474.91;5012740;28;20303;-70
2023/05/09 07:57:46;;;;;;;20.70;17.43;;;;;;;21.98;53.95;97475.13;5023713;28;20614;-70
2023/05/09 08:00:12;;;;;;;20.20;17.30;;;;;;;22.25;54.05;97470.34;5022532;28;20270;-70
2023/05/09 08:02:38;;;;;;;17.93;16.00;;;;;;;22.49;53.49;97468.69;5013211;28;20563;-70
2023/05/09 08:05:04;;;;;;;22.57;18.10;;;;;;;22.59;51.35;97448.66;5015551;28;20474;-71
2023/05/09 08:07:29;;;;;;;21.93;17.57;;;;;;;22.78;51.41;97438.75;5012968;28;20792;-71
2023/05/09 08:09:54;;;;;;;19.80;16.30;;;;;;;22.91;50.59;97435.09;5017294;28;20188;-71
2023/05/09 08:12:20;;;;;;;19.90;16.20;;;;;;;23.02;50.88;97439.69;5014168;28;20239;-70
2023/05/09 08:14:45;;;;;;;16.37;13.90;;;;;;;23.08;50.77;97438.75;5019839;28;20434;-70
2023/05/09 08:17:11;;;;;;;18.57;13.43;;;;;;;23.24;50.57;97436.50;5018320;28;20230;-70
2023/05/09 08:19:36;;;;;;;17.93;14.77;;;;;;;23.27;49.96;97433.41;5015953;28;20689;-70
2023/05/09 08:22:02;;;;;;;18.07;14.33;;;;;;;23.42;50.51;97432.94;5017959;28;20677;-70
2023/05/09 08:24:28;;;;;;;18.57;14.00;;;;;;;23.43;48.26;97422.03;5017332;28;20634;-70
2023/05/09 08:26:53;;;;;;;14.07;12.63;;;;;;;23.36;48.87;97421.31;5010121;28;20199;-70
2023/05/09 08:29:19;;;;;;;16.43;13.43;;;;;;;23.57;49.15;97416.44;5011900;28;20526;-70
2023/05/09 08:31:44;;;;;;;14.47;13.00;;;;;;;23.51;47.69;97423.53;5014493;28;20254;-70
2023/05/09 08:34:09;;;;;;;21.43;12.20;;;;;;;23.71;48.44;97407.16;5018005;28;20926;-70
2023/05/09 08:36:35;;;;;;;15.23;13.43;;;;;;;23.67;48.27;97408.69;5013321;28;20262;-71
2023/05/09 08:39:01;;;;;;;14.10;12.70;;;;;;;23.65;48.50;97407.28;5016112;28;20222;-71
2023/05/09 08:41:29;;;;;;;13.00;11.70;;;;;;;23.23;48.60;97397.47;5007793;28;20250;-71
2023/05/09 08:43:55;;;;;;;11.47;10.30;;;;;;;22.71;48.92;97398.78;5011387;28;20196;-71
2023/05/09 08:46:35;;;;;;;12.03;10.83;;;;;;;22.67;48.87;97402.97;5017408;28;20784;-71
2023/05/09 08:49:05;;;;;;;15.30;13.73;;;;;;;22.89;49.89;97405.13;5009092;28;20184;-71
2023/05/09 08:51:31;;;;;;;15.40;12.93;;;;;;;23.15;48.89;97401.25;5014401;28;20458;-71
2023/05/09 08:53:56;;;;;;;15.43;10.30;;;;;;;23.16;49.12;97406.38;5015114;28;21631;-71
2023/05/09 08:56:22;;;;;;;13.00;10.53;;;;;;;23.04;48.04;97402.03;5015446;28;20434;-70
2023/05/09 08:58:47;;;;;;;9.83;8.50;;;;;;;23.32;48.35;97401.41;5018552;28;20265;-70
2023/05/09 09:01:13;;;;;;;11.50;8.70;;;;;;;23.56;48.62;97394.25;5015513;28;20227;-73
2023/05/09 09:03:38;;;;;;;9.43;7.53;;;;;;;23.78;47.87;97393.66;5016571;28;20244;-70
2023/05/09 09:06:06;;;;;;;8.50;7.30;;;;;;;24.04;47.77;97397.78;5011522;28;20196;-71
2023/05/09 09:08:33;;;;;;;7.47;6.77;;;;;;;24.10;46.15;97390.66;5017234;28;20610;-71
2023/05/09 09:10:59;;;;;;;7.27;6.57;;;;;;;23.93;46.80;97390.53;5008129;28;20796;-70
2023/05/09 09:13:24;;;;;;;8.93;7.50;;;;;;;23.79;46.78;97397.97;5015476;28;20477;-71
2023/05/09 09:15:52;;;;;;;11.07;8.93;;;;;;;23.42;46.67;97385.66;5014967;28;20732;-73
2023/05/09 09:18:21;;;;;;;10.07;9.03;;;;;;;23.19;47.69;97382.91;5009746;28;20192;-71
2023/05/09 09:20:49;;;;;;;12.30;9.97;;;;;;;23.01;47.80;97381.94;5006575;28;20486;-73
2023/05/09 09:23:19;;;;;;;11.53;9.17;;;;;;;22.92;48.47;97377.97;5010122;28;20798;-70
2023/05/09 09:25:56;;;;;;;11.30;9.47;;;;;;;22.78;48.83;97377.31;5017011;28;20447;-72
2023/05/09 09:28:21;;;;;;;12.70;11.17;;;;;;;22.77;49.16;97373.00;5010081;28;20426;-69
2023/05/09 09:30:47;;;;;;;12.50;11.20;;;;;;;22.73;49.17;97363.84;5013851;28;20504;-73
2023/05/09 09:33:22;;;;;;;12.33;10.70;;;;;;;22.89;49.38;97367.72;5008987;28;20393;-70
2023/05/09 09:35:49;;;;;;;10.80;9.60;;;;;;;23.41;48.53;97349.25;5011024;28;20188;-71
2023/05/09 09:38:19;;;;;;;10.97;9.87;;;;;;;23.86;48.10;97355.88;5014917;28;20831;-72
2023/05/09 09:40:54;;;;;;;9.10;8.20;;;;;;;24.16;46.25;97356.78;5017498;28;20426;-71
2023/05/09 09:43:26;;;;;;;11.53;10.13;;;;;;;24.31;45.83;97354.44;5017034;28;20486;-72
2023/05/09 09:45:52;;;;;;;10.07;9.07;;;;;;;24.60;45.73;97338.34;5019253;28;21046;-71
2023/05/09 09:48:23;;;;;;;11.00;9.90;;;;;;;24.80;44.69;97340.63;5008735;28;20470;-72
2023/05/09 09:50:48;;;;;;;11.03;9.73;;;;;;;24.92;44.40;97337.88;5011412;28;20196;-70
2023/05/09 09:53:13;;;;;;;10.67;9.10;;;;;;;24.82;44.63;97327.00;4997366;28;20491;-69
2023/05/09 09:55:48;;;;;;;12.30;7.83;;;;;;;25.08;44.27;97322.03;5011667;28;20295;-71
2023/05/09 09:58:20;;;;;;;9.10;8.20;;;;;;;25.10;44.26;97317.25;5014774;28;20192;-72
2023/05/09 10:00:46;;;;;;;12.10;8.93;;;;;;;25.21;43.89;97315.56;5011159;28;20474;-72
2023/05/09 10:03:17;;;;;;;11.60;9.30;;;;;;;25.24;42.81;97313.19;5014634;28;20535;-70
2023/05/09 10:05:43;;;;;;;11.13;8.80;;;;;;;24.94;42.86;97306.31;5010274;28;20847;-71
2023/05/09 10:08:09;;;;;;;12.10;9.00;;;;;;;24.93;43.39;97314.56;5015852;28;20462;-71
2023/05/09 10:10:36;;;;;;;11.57;10.43;;;;;;;24.61;43.46;97312.38;5013806;28;20219;-70
2023/05/09 10:13:06;;;;;;;10.97;9.90;;;;;;;24.91;44.15;97296.06;5008823;28;20212;-70
2023/05/09 10:15:32;;;;;;;13.67;9.90;;;;;;;25.05;44.64;97295.75;5016528;28;20831;-71
2023/05/09 10:17:59;;;;;;;11.97;9.90;;;;;;;24.75;44.69;97297.66;5016529;28;20845;-71
2023/05/09 10:20:26;;;;;;;13.13;11.73;;;;;;;24.66;45.05;97297.22;5011177;28;20807;-71
2023/05/09 10:22:55;;;;;;;16.27;13.80;;;;;;;24.69;44.84;97286.06;5014745;28;20423;-71
2023/05/09 10:25:21;;;;;;;12.10;10.27;;;;;;;25.03;43.86;97281.75;5018010;28;20546;-71
2023/05/09 10:27:47;;;;;;;13.77;11.40;;;;;;;25.32;42.89;97279.78;5013489;28;20462;-71
2023/05/09 10:30:27;;;;;;;11.03;9.60;;;;;;;25.48;43.41;97272.00;5015196;28;20423;-71
2023/05/09 10:32:58;;;;;;;15.80;11.30;;;;;;;25.53;42.28;97275.56;5016896;28;20543;-71
2023/05/09 10:35:25;;;;;;;14.23;10.67;;;;;;;25.57;42.84;97273.19;5020619;28;20466;-70
2023/05/09 10:37:51;;;;;;;14.80;10.27;;;;;;;25.76;42.56;97271.03;5001539;28;20519;-70
2023/05/09 10:40:18;;;;;;;11.60;10.10;;;;;;;25.94;43.04;97259.16;4993789;28;20526;-70
2023/05/09 10:42:44;;;;;;;12.13;10.40;;;;;;;26.05;42.78;97249.34;5014032;28;20187;-71
2023/05/09 10:45:11;;;;;;;15.73;9.23;;;;;;;25.98;42.66;97248.72;5013406;28;20447;-71
2023/05/09 10:47:39;;;;;;;14.93;11.00;;;;;;;25.84;41.76;97254.47;5010553;28;20613;-71
2023/05/09 10:50:07;;;;;;;16.53;12.63;;;;;;;25.88;41.82;97250.22;5014356;28;20828;-69
2023/05/09 10:52:33;;;;;;;15.77;10.70;;;;;;;25.92;42.52;97240.63;5014467;28;20459;-71
2023/05/09 10:55:02;;;;;;;13.53;9.90;;;;;;;25.90;41.48;97233.88;5015507;28;20474;-70
2023/05/09 10:57:29;;;;;;;15.30;9.83;;;;;;;25.87;41.31;97227.13;5016292;28;20187;-69
2023/05/09 10:59:55;;;;;;;11.83;8.90;;;;;;;25.97;42.19;97228.31;5012118;28;20951;-71
2023/05/09 11:02:22;;;;;;;15.23;9.60;;;;;;;25.87;41.83;97221.78;5017912;28;20434;-71
2023/05/09 11:05:11;;;;;;;10.07;9.03;;;;;;;25.96;41.79;97221.34;5018248;28;20451;-70
2023/05/09 11:07:36;;;;;;;10.70;8.70;;;;;;;26.07;42.67;97206.97;5014153;28;20481;-70
2023/05/09 11:10:17;;;;;;;10.27;7.83;;;;;;;26.46;41.19;97198.78;5016076;28;20431;-71
2023/05/09 11:12:53;;;;;;;8.00;6.20;;;;;;;26.55;40.50;97199.09;5013968;28;20199;-70
2023/05/09 11:15:19;;;;;;;8.13;6.67;;;;;;;26.46;39.74;97192.56;5016953;28;20995;-70
2023/05/09 11:17:51;;;;;;;9.63;8.10;;;;;;;26.31;40.95;97187.88;5018981;28;20521;-70